Time,TemperatureF,DewpointF,PressureIn,WindDirection,WindDirectionDegrees,WindSpeedMPH,WindSpeedGustMPH,Humidity,HourlyPrecipIn,Conditions,Clouds,dailyrainin,SoftwareType,DateUTC
2013-08-27 00:18:00,67.0,66.0,30.01,SSE,151,0.0,0.0,98,0.01,,,0.45,,2013-08-27 04:18:00,
2013-08-27 00:47:00,68.0,67.0,30.00,SSE,150,0.0,0.0,98,0.14,,,0.59,,2013-08-27 04:47:00,
2013-08-27 00:54:00,68.0,67.0,29.99,SSE,150,0.0,0.0,98,0.16,,,0.61,,2013-08-27 04:54:00,
2013-08-27 01:13:00,68.0,67.0,29.99,SSE,150,0.0,0.0,98,0.18,,,0.63,,2013-08-27 05:13:00,
2013-08-27 01:23:00,68.0,67.0,29.98,SSE,149,0.0,0.0,98,0.12,,,0.67,,2013-08-27 05:23:00,
2013-08-27 01:43:00,68.0,67.0,29.97,SSE,149,0.0,0.0,98,0.09,,,0.68,,2013-08-27 05:43:00,
2013-08-27 01:52:00,68.0,67.0,29.97,SSE,149,0.0,0.0,98,0.08,,,0.69,,2013-08-27 05:52:00,
2013-08-27 02:12:00,68.0,67.0,29.96,SSE,149,0.0,0.0,98,0.12,,,0.75,,2013-08-27 06:12:00,
2013-08-27 02:22:00,68.0,67.0,29.95,SSE,149,0.0,0.0,98,0.13,,,0.80,,2013-08-27 06:22:00,
2013-08-27 02:42:00,68.0,67.0,29.94,SSE,149,0.0,0.0,98,0.22,,,0.90,,2013-08-27 06:42:00,
2013-08-27 02:52:00,68.0,67.0,29.94,SSE,149,0.0,0.0,98,0.26,,,0.95,,2013-08-27 06:52:00,
2013-08-27 03:12:00,68.0,67.0,29.93,SSE,149,0.0,0.0,98,0.22,,,0.97,,2013-08-27 07:12:00,
2013-08-27 03:22:00,68.0,67.0,29.93,SSE,149,0.0,0.0,98,0.17,,,0.97,,2013-08-27 07:22:00,
2013-08-27 03:42:00,68.0,67.0,29.93,SSE,149,0.0,0.0,98,0.08,,,0.98,,2013-08-27 07:42:00,
2013-08-27 03:52:00,68.0,67.0,29.93,SSE,149,0.0,0.0,98,0.04,,,0.99,,2013-08-27 07:52:00,
2013-08-27 04:12:00,68.0,67.0,29.92,SSE,149,0.0,0.0,98,0.05,,,1.02,,2013-08-27 08:12:00,
2013-08-27 04:22:00,67.0,66.0,29.92,SSE,150,0.0,0.0,98,0.07,,,1.04,,2013-08-27 08:22:00,
2013-08-27 04:42:00,67.0,66.0,29.91,SSE,149,0.0,0.0,98,0.09,,,1.07,,2013-08-27 08:42:00,
2013-08-27 04:52:00,67.0,66.0,29.92,SSE,149,0.0,0.0,98,0.10,,,1.09,,2013-08-27 08:52:00,
2013-08-27 05:12:00,67.0,66.0,29.92,SSE,149,0.0,0.0,98,0.08,,,1.10,,2013-08-27 09:12:00,
2013-08-27 05:22:00,67.0,66.0,29.92,SSE,149,0.0,0.0,98,0.08,,,1.12,,2013-08-27 09:22:00,
2013-08-27 05:43:00,67.0,66.0,29.92,SSE,149,0.0,0.0,98,0.05,,,1.12,,2013-08-27 09:43:00,
2013-08-27 05:54:00,67.0,66.0,29.92,SSE,149,0.0,0.0,98,0.03,,,1.12,,2013-08-27 09:54:00,
2013-08-27 06:14:00,67.0,66.0,29.92,SSE,149,0.0,0.0,98,0.02,,,1.12,,2013-08-27 10:14:00,
2013-08-27 06:25:00,67.0,66.0,29.93,SSE,150,0.0,0.0,98,0.00,,,1.12,,2013-08-27 10:25:00,
2013-08-27 06:43:00,67.0,66.0,29.93,SSE,149,0.0,0.0,98,0.00,,,1.12,,2013-08-27 10:43:00,
2013-08-27 06:53:00,67.0,67.0,29.93,SSE,150,0.0,1.0,99,0.00,,,1.12,,2013-08-27 10:53:00,
2013-08-27 07:12:00,67.0,67.0,29.93,SSE,149,0.0,0.0,99,0.00,,,1.12,,2013-08-27 11:12:00,
2013-08-27 07:22:00,68.0,68.0,29.93,SSE,149,0.0,0.0,99,0.00,,,1.12,,2013-08-27 11:22:00,
2013-08-27 07:42:00,68.0,68.0,29.93,SSE,150,0.0,1.0,99,0.00,,,1.12,,2013-08-27 11:42:00,
2013-08-27 07:52:00,68.0,68.0,29.94,North,356,0.0,2.0,99,0.00,,,1.12,,2013-08-27 11:52:00,
2013-08-27 08:12:00,68.0,68.0,29.94,North,357,0.0,1.0,99,0.00,,,1.12,,2013-08-27 12:12:00,
2013-08-27 08:22:00,68.0,68.0,29.95,North,352,0.0,1.0,99,0.00,,,1.12,,2013-08-27 12:22:00,
2013-08-27 08:42:00,68.0,68.0,29.95,North,6,0.0,2.0,99,0.00,,,1.12,,2013-08-27 12:42:00,
2013-08-27 08:52:00,69.0,69.0,29.95,East,86,0.0,1.0,99,0.00,,,1.12,,2013-08-27 12:52:00,
2013-08-27 09:12:00,69.0,68.0,29.95,East,84,1.0,2.0,98,0.00,,,1.12,,2013-08-27 13:12:00,
2013-08-27 09:22:00,70.0,69.0,29.96,North,359,0.0,3.0,98,0.00,,,1.12,,2013-08-27 13:22:00,
2013-08-27 09:42:00,70.0,69.0,29.95,North,352,0.0,4.0,96,0.00,,,1.12,,2013-08-27 13:42:00,
2013-08-27 09:52:00,71.0,70.0,29.96,North,359,0.0,1.0,96,0.00,,,1.12,,2013-08-27 13:52:00,
2013-08-27 10:11:00,71.0,70.0,29.96,SE,141,0.0,1.0,96,0.00,,,1.12,,2013-08-27 14:11:00,
2013-08-27 10:22:00,72.0,70.0,29.97,NNE,30,0.0,3.0,95,0.00,,,1.12,,2013-08-27 14:22:00,
2013-08-27 10:42:00,73.0,71.0,29.97,North,349,1.0,3.0,92,0.00,,,1.12,,2013-08-27 14:42:00,
2013-08-27 10:53:00,74.0,71.0,29.97,North,11,1.0,4.0,89,0.00,,,1.12,,2013-08-27 14:53:00,
2013-08-27 11:11:00,75.0,72.0,29.97,North,352,0.0,4.0,91,0.00,,,1.12,,2013-08-27 15:11:00,
2013-08-27 11:22:00,75.0,71.0,29.98,North,5,1.0,3.0,88,0.00,,,1.12,,2013-08-27 15:22:00,
2013-08-27 11:45:00,75.0,72.0,29.98,North,350,0.0,2.0,89,0.00,,,1.12,,2013-08-27 15:45:00,
2013-08-27 11:58:00,76.0,71.0,29.97,North,8,1.0,4.0,84,0.00,,,1.12,,2013-08-27 15:58:00,
2013-08-27 12:17:00,76.0,71.0,29.98,NNE,13,1.0,3.0,84,0.00,,,1.12,,2013-08-27 16:17:00,
2013-08-27 12:28:00,77.0,72.0,29.98,NNE,21,1.0,3.0,85,0.00,,,1.12,,2013-08-27 16:28:00,
2013-08-27 12:46:00,78.0,72.0,29.97,North,6,0.0,3.0,83,0.00,,,1.12,,2013-08-27 16:46:00,
2013-08-27 12:55:00,78.0,72.0,29.97,East,79,0.0,3.0,81,0.00,,,1.12,,2013-08-27 16:55:00,
2013-08-27 13:13:00,80.0,72.0,29.97,NNE,18,1.0,3.0,78,0.00,,,1.12,,2013-08-27 17:13:00,
2013-08-27 13:23:00,80.0,72.0,29.97,North,358,1.0,4.0,77,0.00,,,1.12,,2013-08-27 17:23:00,
2013-08-27 13:43:00,80.0,72.0,29.97,ENE,69,0.0,1.0,78,0.00,,,1.12,,2013-08-27 17:43:00,
2013-08-27 13:52:00,81.0,74.0,29.97,NNE,23,0.0,3.0,80,0.00,,,1.12,,2013-08-27 17:52:00,
2013-08-27 14:12:00,83.0,75.0,29.96,NNE,16,0.0,2.0,76,0.00,,,1.12,,2013-08-27 18:12:00,
2013-08-27 14:22:00,84.0,72.0,29.96,North,9,1.0,2.0,68,0.00,,,1.12,,2013-08-27 18:22:00,
2013-08-27 14:42:00,84.0,73.0,29.96,NW,308,0.0,3.0,70,0.00,,,1.12,,2013-08-27 18:42:00,
2013-08-27 14:53:00,84.0,73.0,29.95,North,3,0.0,4.0,70,0.00,,,1.12,,2013-08-27 18:53:00,
2013-08-27 15:12:00,83.0,72.0,29.95,NNE,16,0.0,4.0,70,0.00,,,1.12,,2013-08-27 19:12:00,
2013-08-27 15:22:00,83.0,73.0,29.95,East,97,1.0,3.0,71,0.00,,,1.12,,2013-08-27 19:22:00,
2013-08-27 15:42:00,83.0,73.0,29.94,ENE,68,0.0,1.0,71,0.00,,,1.12,,2013-08-27 19:42:00,
2013-08-27 15:52:00,83.0,70.0,29.94,North,360,1.0,2.0,64,0.00,,,1.12,,2013-08-27 19:52:00,
2013-08-27 16:12:00,84.0,73.0,29.93,ENE,72,0.0,1.0,69,0.00,,,1.12,,2013-08-27 20:12:00,